Stolt Spray — ZCSQ9 — position and weather

sailwx.info

Track history (hours):
 
Tides and Currents Weather Stations Pressure Air Temp Water Temp Dewpoint Dewpoint Depression Visibility Wind Speed Wind Dir Waves Ship Positions

Stolt Spray

Last reported at 2015-Mar-25 12:31 UTC. Time now 2015-Mar-31 22:03 UTC.
Position N 31°54' W 117°32'.

Length 163 m; draft 9.9 m.

Type: Tanker. MMSI: 319591000.

Date/timePositionNaut miles runAvg speedWind from/ knotsBaromVisibWave heightAir tempDewpointWater temp
2015-Mar-25 12:31N 31°54' W 117°32'1313.4
2015-Mar-25 11:33N 32°06' W 117°37'1312.8
2015-Mar-25 10:33N 32°18' W 117°42'1413.0
2015-Mar-25 09:29N 32°31' W 117°47'1313.5
2015-Mar-25 08:33N 32°43' W 117°52'1414.0
2015-Mar-25 07:33N 32°56' W 117°57'1413.8
2015-Mar-25 06:34N 33°09' W 118°02'1414.0
2015-Mar-25 05:33N 33°23' W 118°08'1313.6
2015-Mar-25 04:33N 33°36' W 118°13'10 1.2
2015-Mar-24 20:14N 33°46' W 118°16'0 0.6
2015-Mar-24 19:32N 33°46' W 118°16'0 0.0
2015-Mar-24 18:32N 33°46' W 118°16'0 0.0
2015-Mar-24 17:32N 33°46' W 118°16'0 0.0
2015-Mar-24 16:32N 33°46' W 118°16'0 0.0
2015-Mar-24 15:14N 33°46' W 118°16'0 0.0
2015-Mar-24 11:17N 33°46' W 118°16'0 0.0
2015-Mar-24 10:32N 33°46' W 118°16'0 0.0
2015-Mar-24 08:23N 33°46' W 118°16'0 0.0
2015-Mar-24 06:32N 33°46' W 118°16'0 0.0
2015-Mar-24 03:33N 33°46' W 118°16'2 1.8
2015-Mar-24 02:27N 33°44' W 118°16'4 1.7
2015-Mar-24 00:07N 33°43' W 118°12'0 0.0
2015-Mar-23 13:13N 33°43' W 118°12'2110.0
2015-Mar-23 11:06N 33°22' W 118°04'611.0
2015-Mar-23 10:33N 33°17' W 118°02'1211.5
2015-Mar-23 09:33N 33°14' W 118°15'1412.3
2015-Mar-23 08:25N 33°11' W 118°31'  
Track history (hours):
 
Tides and Currents Weather Stations Pressure Air Temp Water Temp Dewpoint Dewpoint Depression Visibility Wind Speed Wind Dir Waves Ship Positions

Stolt Spray

Last reported at 2015-Mar-25 12:31 UTC. Time now 2015-Mar-31 22:03 UTC.
Position N 31°54' W 117°32'.

Length 163 m; draft 9.9 m.

Type: Tanker. MMSI: 319591000.

Date/timePositionNaut miles runAvg speedWind from/ knotsBaromVisibWave heightAir tempDewpointWater temp
2015-Mar-25 12:31N 31°54' W 117°32'1313.4
2015-Mar-25 11:33N 32°06' W 117°37'1312.8
2015-Mar-25 10:33N 32°18' W 117°42'1413.0
2015-Mar-25 09:29N 32°31' W 117°47'1313.5
2015-Mar-25 08:33N 32°43' W 117°52'1414.0
2015-Mar-25 07:33N 32°56' W 117°57'1413.8
2015-Mar-25 06:34N 33°09' W 118°02'1414.0
2015-Mar-25 05:33N 33°23' W 118°08'1313.6
2015-Mar-25 04:33N 33°36' W 118°13'10 1.2
2015-Mar-24 20:14N 33°46' W 118°16'0 0.6
2015-Mar-24 19:32N 33°46' W 118°16'0 0.0
2015-Mar-24 18:32N 33°46' W 118°16'0 0.0
2015-Mar-24 17:32N 33°46' W 118°16'0 0.0
2015-Mar-24 16:32N 33°46' W 118°16'0 0.0
2015-Mar-24 15:14N 33°46' W 118°16'0 0.0
2015-Mar-24 11:17N 33°46' W 118°16'0 0.0
2015-Mar-24 10:32N 33°46' W 118°16'0 0.0
2015-Mar-24 08:23N 33°46' W 118°16'0 0.0
2015-Mar-24 06:32N 33°46' W 118°16'0 0.0
2015-Mar-24 03:33N 33°46' W 118°16'2 1.8
2015-Mar-24 02:27N 33°44' W 118°16'4 1.7
2015-Mar-24 00:07N 33°43' W 118°12'0 0.0
2015-Mar-23 13:13N 33°43' W 118°12'2110.0
2015-Mar-23 11:06N 33°22' W 118°04'611.0
2015-Mar-23 10:33N 33°17' W 118°02'1211.5
2015-Mar-23 09:33N 33°14' W 118°15'1412.3
2015-Mar-23 08:25N 33°11' W 118°31'  

Dump ship's entire track history